x

9410840 - Santa Monica Pier (icac1) Weather Station

5:54 - Thu 29th Sep 2016 All times are PDT. -7 hours from GMT.

  • Wind
    5mph
  • Sea Temp 70°f
  • Luft Temp 69°f
  • Sea Pressure 1015.4mb
  • 9410840 - Santa Monica Pier
  • 9410840 - Santa Monica Pier

More Historic Weather Station data

Upgrade to MSW Pro to gain access to the past 30 days of data for over 8000 Wavebouys and Weather Stations around the globe.

Join Pro

Comparision Forecast

View Surf forecast
   
Do 09/29 5:54 5
mph
1015.4mb 70f 69f
5:48 3 5 mph 1015.4mb 70f 70f
5:42 3 5 mph 1015.3mb 70f -
5:36 1 3 mph 1015.3mb 70f -
5:30 3 6 mph 1015.2mb 70f 71f
5:24 3 5 mph 1015.1mb 70f 70f
5:18 5 6 mph 1015.1mb 70f 70f
5:12 5 6 mph 1015mb 70f 70f
5:06 6
mph
1015mb 70f 70f
5:00 5 6 mph 1015mb 70f 70f
4:54 5
mph
1014.9mb 70f 70f
4:48 5
mph
1014.9mb 70f 70f
4:42 5
mph
1014.9mb 70f 70f
4:36 5
mph
1014.8mb 70f 70f
4:30 3
mph
1014.7mb 70f 70f
4:24 2
mph
1014.6mb 70f 70f
4:18 2 3 mph 1014.6mb 69f 70f
4:12 2 3 mph 1014.6mb 69f 70f
4:06 3 5 mph 1014.7mb 68f 70f
4:00 5
mph
1014.7mb 67f 70f
3:54 5
mph
1014.7mb 67f 70f
3:48 3 5 mph 1014.7mb 67f 70f
3:42 6
mph
1014.6mb 67f 70f
3:36 6 7 mph 1014.6mb 67f 71f
3:30 6 7 mph 1014.5mb 67f 71f
3:24 5 6 mph 1014.6mb 67f 70f
3:18 5 6 mph 1014.6mb 67f 70f
3:12 5 6 mph 1014.6mb 67f 70f
3:06 6 7 mph 1014.5mb 67f 70f
3:00 6 7 mph 1014.5mb 67f 70f
2:54 6
mph
1014.5mb 67f 70f
2:48 6
mph
1014.5mb 67f 70f
2:42 5 6 mph 1014.5mb 67f 70f
2:36 3 6 mph 1014.5mb 67f 70f
2:30 5 6 mph 1014.5mb 68f 70f
2:24 5
mph
1014.5mb 68f 70f
2:18 3 5 mph 1014.5mb 68f 70f
2:12 5 6 mph 1014.4mb 68f 70f
2:06 5 7 mph 1014.4mb 68f 70f
2:00 6 8 mph 1014.4mb 68f 70f
1:54 7
mph
1014.3mb 67f 70f
1:48 7
mph
1014.3mb 68f 70f
1:42 7
mph
1014.2mb 68f 70f
1:36 7 8 mph 1014.2mb 68f 70f
1:30 7
mph
1014.2mb 68f 70f
1:24 5 6 mph 1014.1mb 68f 70f
1:18 5 6 mph 1014mb 68f 71f
1:12 5 6 mph 1014.1mb 68f 71f
1:06 5 6 mph 1014.1mb 68f 71f
1:00 5 6 mph 1014mb 68f 71f
12:54 3 7 mph 1014mb 68f 70f
12:48 6 8 mph 1014.1mb 68f 70f
12:42 7 8 mph 1014.1mb 69f 70f
12:36 7 8 mph 1014.1mb 69f 70f
12:30 6 7 mph 1014.1mb 68f 70f
12:24 5
mph
1014.1mb 68f 70f
12:18 3 5 mph 1014mb 68f 70f
12:12 3 5 mph 1014mb 68f 70f
12:06 3
mph
1014.1mb 69f 70f
12:00 2 5 mph 1014.1mb 69f 69f
Mi 09/28 11:54 3
mph
1014.1mb 69f 69f
11:48 3 5 mph 1014.2mb 69f 69f
11:42 5 6 mph 1014.1mb - -
11:36 6
mph
1014.1mb - -
11:30 6
mph
1014mb 69f 69f
11:24 6 7 mph 1014.1mb 69f 69f
11:18 6 7 mph 1014.2mb 69f 70f
11:12 6
mph
1014.2mb 69f 70f
11:06 6
mph
1014.2mb 69f 70f
11:00 5
mph
1014.3mb 69f 70f
10:54 5
mph
1014.2mb 69f 70f
10:48 2 3 mph 1014.2mb 69f 70f
10:42 2
mph
1014.2mb 69f -
10:36 2 3 mph 1014.2mb 69f -
10:30 3 5 mph 1014.2mb 69f 70f
10:24 3 5 mph 1014.2mb 69f 70f
10:18 3
mph
1014.2mb 69f 70f
10:12 3 6 mph 1014.1mb 69f 70f
10:06 5 6 mph 1014.1mb 69f 70f
10:00 5 6 mph 1014mb 69f 70f
9:54 5 6 mph 1014.1mb 69f 70f
9:48 5 6 mph 1014mb 69f 70f
9:42 5 6 mph 1014mb 69f 70f
9:36 5 6 mph 1013.9mb 69f 70f
9:30 3 5 mph 1013.9mb 69f 71f
9:24 5
mph
1013.8mb 69f 71f
9:18 3 5 mph 1013.8mb 69f 71f
9:12 5
mph
1013.8mb 69f 71f
9:06 3 5 mph 1013.8mb 69f 71f
9:00 3
mph
1013.7mb 69f 71f
8:54 3 5 mph 1013.7mb 69f 71f
8:48 5
mph
1013.7mb 69f 71f
8:42 2 3 mph 1013.7mb 69f 71f
8:36 2 3 mph 1013.6mb 69f 71f
8:30 1 2 mph 1013.6mb 69f 71f
8:24  -  1 mph 1013.6mb 69f 71f
8:18  -  1 mph 1013.7mb 69f 71f
8:12  -  2 mph 1013.7mb 70f 71f
8:06 1 2 mph 1013.6mb 69f 71f
8:00 2
mph
1013.6mb 69f 71f
7:54 2
mph
1013.7mb 69f 71f
7:48 2 3 mph 1013.7mb 69f 71f
7:42 1 3 mph 1013.6mb 69f 71f
7:36 3 5 mph 1013.5mb 69f 71f
7:30 5 7 mph 1013.4mb 69f 71f
7:24 6
mph
1013.3mb 69f 71f
7:18 6 7 mph - - -
7:12 7
mph
1013.2mb 70f 72f
7:06 6
mph
1013.1mb 69f 72f
7:00 5 6 mph 1013mb 70f 73f
6:54 6 7 mph 1012.8mb 70f 73f
6:48 6
mph
1012.7mb 70f 73f
6:42 5
mph
1012.7mb 70f 74f
6:36 2 5 mph 1012.8mb 70f 74f
6:30 3
mph
1012.7mb 70f 74f
6:24 3 5 mph 1012.7mb 71f 75f
6:18 2 3 mph 1012.7mb - -
6:12 2 3 mph 1012.7mb 71f 76f
6:06 2 3 mph 1012.6mb 71f 77f
6:00 3 5 mph 1012.5mb 71f 76f
5:54 3 6 mph 1012.5mb 71f 76f
5:48 3 6 mph - - -
5:42 2 7 mph 1012.4mb 71f 76f
5:36 6 7 mph 1012.3mb 71f 75f
5:30 5 6 mph - 71f 75f
5:24 6 8 mph - 71f 74f
5:18 7 9 mph - - -
5:12 8 9 mph 1012.2mb 71f 74f
5:06 7 8 mph 1012.2mb 71f 74f
5:00 6 7 mph 1012.2mb 71f 74f
4:54 6 7 mph 1012.2mb 71f 74f
4:48 6 7 mph 1012.2mb - -
4:42 6 7 mph 1012.3mb 71f -
4:36 6 8 mph 1012.3mb 71f -
4:30 8
mph
1012.3mb 71f 74f
4:24 6 7 mph 1012.3mb 71f 73f
4:18 6 7 mph - - -
4:12 6 7 mph 1012.4mb 71f 74f
4:06 7
mph
1012.4mb 71f 73f
4:00 7 8 mph 1012.4mb 71f 73f
3:54 7 8 mph 1012.3mb 71f 73f
3:48 6 7 mph 1012.3mb - -
3:42 5 6 mph 1012.4mb 71f -
3:36 5
mph
1012.4mb 71f -
3:30 5 6 mph 1012.5mb 71f 73f
3:24 5 6 mph 1012.5mb 71f 73f
3:18 6 7 mph 1012.5mb - -
3:12 6 7 mph 1012.5mb 71f 73f
3:06 6 8 mph 1012.5mb 71f 73f
3:00 7 8 mph 1012.5mb 71f 73f
2:54 7 8 mph 1012.5mb 71f 73f
2:48 7 9 mph - - -
2:42 8 9 mph 1012.5mb 71f 74f
2:36 8 9 mph 1012.5mb 70f 74f
2:30 7 8 mph 1012.5mb 70f 74f
2:24 6
mph
1012.6mb 70f 74f
2:18 5 6 mph 1012.7mb 70f 74f
2:12 3 5 mph 1012.6mb 69f 74f
2:06 5 6 mph 1012.7mb 69f 74f
2:00 5 6 mph 1012.7mb 69f 75f
1:54 6 7 mph 1012.7mb 69f 74f
1:48 6 7 mph 1012.7mb 69f 74f
1:42 6 7 mph 1012.8mb 69f 75f
1:36 5 6 mph 1012.9mb 69f 74f
1:30 6 7 mph 1012.9mb 69f 74f
1:24 6 7 mph 1013mb 69f 74f
1:18 6 7 mph 1013mb 69f 73f
1:12 7 8 mph 1013.1mb 68f 74f
1:06 6
mph
1013.1mb 69f 74f
1:00 5 6 mph 1013.2mb 69f 74f
12:54 3 5 mph 1013.3mb 69f 74f
12:48 3 5 mph 1013.4mb 69f 74f
12:42 5
mph
1013.4mb 69f 74f
12:36 5 6 mph 1013.4mb 69f 75f
12:30 6 7 mph 1013.4mb 69f 75f
12:24 6 7 mph 1013.5mb 69f 75f
12:18 6 7 mph 1013.6mb 69f 74f
12:12 6 7 mph 1013.6mb 69f 74f
12:06 6 8 mph 1013.7mb 69f 74f
12:00 6 7 mph 1013.7mb 69f 74f
11:54 5 7 mph 1013.7mb 69f 74f
11:48 7 10 mph 1013.8mb 69f 73f
11:42 6 8 mph 1013.7mb 69f 74f
11:36 9 14 mph 1013.8mb 69f 73f
11:30 14 16 mph 1013.6mb 69f 73f
11:24 15 17 mph 1013.6mb 69f 73f
11:18 16 17 mph 1013.6mb 69f 73f
11:12 16 17 mph 1013.6mb 69f 73f
11:06 16
mph
1013.6mb 69f 74f
11:00 15
mph
1013.6mb 69f 74f
10:54 13 14 mph 1013.6mb 69f 73f
10:48 9 10 mph 1013.5mb 69f 78f
10:42 7 8 mph 1013.6mb 69f 79f
10:36 5 6 mph 1013.6mb 69f 80f
10:30 5
mph
1013.6mb 68f 81f
10:24 3 5 mph 1013.6mb 68f 80f
10:18 2 5 mph 1013.6mb 68f 81f
10:12 2 3 mph 1013.6mb 68f 82f
10:06 2 5 mph 1013.6mb 68f 84f
10:00 3 5 mph 1013.6mb 69f 82f
9:54 2 6 mph 1013.6mb 69f 82f
9:48 2 5 mph 1013.7mb 69f 82f
9:42  -  6 mph 1013.7mb 69f 82f
9:36 5 7 mph 1013.7mb 68f 81f
9:30 5 6 mph 1013.7mb 68f 81f
9:24 6 7 mph 1013.6mb 68f 80f
9:18 6 7 mph 1013.6mb 68f 80f
9:12 6 7 mph 1013.5mb 68f 80f
9:06 6 7 mph 1013.5mb 69f 79f
9:00 5 6 mph 1013.5mb 69f 79f
8:54 5 7 mph 1013.5mb 69f 78f
8:48 5 6 mph 1013.5mb 69f 78f
8:42 5 6 mph 1013.5mb 69f 78f
8:36 5 7 mph 1013.6mb 69f 77f
8:30 7
mph
1013.5mb 69f 77f
8:24 6 7 mph 1013.5mb 69f 77f
8:18 5 6 mph 1013.4mb 69f 76f
8:12 6 7 mph 1013.4mb 69f 76f
8:06 6 8 mph 1013.4mb 69f 75f
8:00 6 7 mph 1013.3mb 69f 75f
7:54 5 6 mph 1013.3mb 69f 75f
7:48 5 7 mph 1013.3mb 69f 74f
7:42 3 5 mph 1013.2mb 69f 74f
7:36 6 7 mph 1013.2mb 69f 74f
7:30 5 7 mph 1013.1mb 69f 74f
7:24 6 8 mph 1013.1mb 69f 73f
7:18 7 8 mph 1013.1mb 69f 73f
7:12 5 6 mph 1013.1mb 69f 73f
7:06 5 6 mph 1013mb 69f 73f
7:00 5 7 mph 1013mb 69f 73f
6:54 5 7 mph 1013mb 69f 72f
6:48 5 7 mph 1013mb 69f 72f
6:42 5 6 mph 1012.9mb 69f 72f
6:36 5 7 mph 1012.9mb 69f 72f
6:30 6 8 mph 1012.8mb 69f 72f
6:24 6 8 mph 1012.8mb 69f 73f
6:18 7 9 mph 1012.7mb 69f 73f
6:12 7 9 mph 1012.7mb 69f 73f
6:06 7 10 mph 1012.6mb 69f 73f
6:00 6 7 mph 1012.5mb 69f 73f
5:54 6 8 mph 1012.4mb 69f 73f
5:48 7 9 mph 1012.5mb 69f 73f
5:42 6 7 mph 1012.4mb 69f 73f
5:36 5 7 mph 1012.4mb 69f 73f
5:30 5 6 mph 1012.4mb 69f 73f
5:24 3 5 mph 1012.2mb 69f 73f
5:18 5 6 mph 1012.1mb 69f 73f
5:12 3 6 mph 1012.2mb 69f 73f
5:06 6
mph
1012.1mb 69f 73f
5:00 5 6 mph 1012.1mb 69f 73f
4:54 6 7 mph 1012.2mb 69f 74f
4:48 6 9 mph 1012.1mb 70f 74f
4:42 6 8 mph 1012.1mb 70f 74f
4:36 5 6 mph 1012mb 70f 74f
4:30 5 7 mph 1012.1mb 70f 74f
4:24 5 8 mph 1012mb 70f 74f
4:18 6 9 mph 1012mb 70f 74f
4:12 7 9 mph 1012mb 70f 74f
4:06 7 9 mph 1012mb 70f 74f
4:00 6 9 mph 1012mb 70f 74f
3:54 6 8 mph 1012.1mb 70f 74f
3:48 7 9 mph 1012.2mb 70f 74f
3:42 5 6 mph 1011.8mb 70f 74f
3:36 3 5 mph 1011.9mb 70f 74f
3:30  -  1 mph 1011.9mb 70f 74f
3:24 1 2 mph 1012mb 69f 74f
3:18  -  1 mph 1012.1mb 69f 74f
3:12 1 2 mph 1012.1mb 69f 74f
3:06 1 2 mph 1012.2mb 69f 74f
3:00 2
mph
1012.3mb 69f 74f
2:54 2 3 mph 1012.2mb 69f 74f
2:48 2 3 mph 1012.3mb 68f 73f
2:42 3
mph
1012.2mb 68f 74f
2:36 2
mph
1012.3mb 68f 74f
2:30 2
mph
1012.3mb 68f 73f
2:24 2 3 mph 1012.4mb 68f 73f
2:18 2
mph
1012.4mb 68f 73f
2:12 3
mph
1012.4mb 68f 73f
2:06 2
mph
1012.4mb 68f 73f
2:00 2
mph
1012.3mb 68f 73f
1:54 1 2 mph 1012.2mb 68f 73f
1:48 1 2 mph 1012.2mb 68f 73f
1:42 2
mph
1012.2mb 68f 73f
1:36  -  mph 1012.1mb 68f 73f
1:30  -  mph 1012.1mb 68f 73f
1:24  -  2 mph 1012.1mb 68f 73f
1:18 2
mph
1012mb 68f 74f
1:12  -  2 mph 1012mb 68f 73f
1:06 1 2 mph 1012.1mb 68f 73f
1:00  -  1 mph 1012.1mb 68f 73f
12:54  -  1 mph 1012.1mb 68f 72f
12:48  -  1 mph 1012.1mb 68f 72f
12:42  -  2 mph 1012.1mb 68f 73f
12:36 2 3 mph 1011.9mb 69f 73f
12:30 3 5 mph 1011.8mb 69f 73f
12:24 5
mph
1011.8mb 69f 73f
12:18 2 3 mph 1011.8mb 69f 73f
12:12 3 5 mph 1011.8mb 69f 73f
12:06 3
mph
1011.8mb 69f 73f
12:00 3
mph
1011.9mb 69f 73f
Di 09/27 11:54 2 3 mph 1011.9mb 69f 73f
11:48 2
mph
- - -
11:42  -  1 mph 1011.8mb 69f 73f
11:36  -  1 mph 1011.9mb 69f 72f
11:30  -  1 mph 1011.9mb 69f 73f
11:24 1 2 mph 1012mb 69f 73f
11:18  -  1 mph 1012mb 69f 73f
11:12  -  1 mph 1012mb 70f 73f
11:06 1 2 mph 1011.9mb 70f 73f
11:00 1 3 mph 1011.9mb 70f 74f
10:54 3 6 mph 1011.9mb 70f 74f
10:48 5
mph
1011.9mb 70f 74f
10:42 5
mph
1011.9mb 70f -
10:36 5 6 mph 1011.8mb 70f -
10:30 6 8 mph 1011.8mb 70f 76f
10:24 8 11 mph 1011.8mb 70f 76f
10:18 9
mph
1011.8mb 70f 76f
10:12 7 8 mph 1011.8mb 70f 76f
10:06 2 3 mph 1011.7mb 70f 75f
10:00 3 5 mph 1011.7mb 70f 75f
9:54 3
mph
1011.7mb 70f 75f
9:48 1
mph
1011.7mb 69f 75f
9:42  -  1 mph 1011.6mb 70f 75f
9:36 1 2 mph 1011.7mb 69f 75f
9:30 2
mph
1011.7mb 70f 74f
9:24 2 3 mph 1011.8mb 69f 74f
9:18 2 3 mph 1011.8mb 69f 74f
9:12 2
mph
1011.7mb 69f 74f
9:06 2 3 mph 1011.7mb 69f 74f
9:00 3 5 mph 1011.7mb 69f 74f
8:54 3
mph
1011.6mb 69f 74f
8:48 2
mph
- - -
8:42  -  2 mph 1011.5mb 69f 75f
8:36 2 3 mph 1011.4mb 69f 75f
8:30 2 3 mph 1011.4mb 68f 75f
8:24 3
mph
1011.3mb 69f 76f
8:18 2
mph
1011.4mb 69f 76f
8:12 2 3 mph 1011.3mb 68f 76f
8:06 3
mph
1011.3mb 68f 76f
8:00 3
mph
1011.2mb 68f 76f
7:54 3 6 mph 1011.1mb 68f 76f
7:48 5 6 mph - - -
7:42 5 6 mph 1011.1mb 69f 76f
7:36 3 5 mph 1011.2mb 69f 76f
7:30 2 6 mph 1011.2mb 70f 75f
7:24 7
mph
1011.1mb 70f 77f
7:18 7 8 mph - - -
7:12 8
mph
1011.1mb 70f 78f
7:06 7 8 mph 1011mb 70f 77f
7:00 7 8 mph 1010.9mb 70f 78f
6:54 6
mph
1011mb 70f 77f
6:48 6 7 mph - - -
6:42 6 7 mph 1010.9mb 70f 76f
6:36 3 7 mph 1010.8mb 70f 76f
6:30 6 13 mph 1010.8mb 70f 76f
6:24 9 13 mph 1010.7mb 70f 77f
6:18 7 9 mph - - -
6:12 8 9 mph - 70f 76f
6:06 7 9 mph - 70f 76f
6:00 7 9 mph 1010.6mb 70f 76f
5:54 8 9 mph 1010.6mb 70f 76f
5:48 9 10 mph - - -
5:42 7 8 mph 1010.5mb 70f 75f
5:36 6 7 mph 1010.4mb 70f 76f
5:30 6 10 mph 1010.5mb 70f 76f
5:24 9
mph
1010.4mb 70f 76f
5:18 9 11 mph - - -
5:12 7 8 mph 1010.4mb 70f 75f
5:06 8 10 mph 1010.3mb 70f 76f
5:00 10 11 mph 1010.3mb 70f 76f
4:54 10 11 mph 1010.3mb 70f 76f
4:48 10 13 mph 1010.3mb - -
4:42 10 11 mph 1010.3mb 70f -
4:36 9 10 mph 1010.3mb 70f -
4:30 7 10 mph 1010.4mb 70f 75f
4:24 8 10 mph 1010.4mb 70f 76f
4:18 9 10 mph - - -
4:12 8 9 mph 1010.3mb 70f 76f
4:06 8 9 mph 1010.2mb 70f 76f
4:00 8 10 mph 1010.1mb 70f 77f
3:54 5 8 mph 1010.1mb 70f 77f
3:48 8 9 mph 1010.2mb - -
3:42 10
mph
1010.1mb 70f 79f
3:36 10
mph
1010.1mb 70f 79f
3:30 10 11 mph 1010.1mb 70f 80f
3:24 10 11 mph 1010.2mb 70f 80f
3:18 11 13 mph 1010.2mb - -
3:12 11 13 mph 1010.1mb 70f 80f
3:06 10 11 mph 1010.1mb 70f 79f
3:00 10 11 mph 1010mb 70f 80f
2:54 10
mph
1010mb 70f 79f
2:48 9 10 mph - - -
2:42 9 10 mph - 70f 80f
2:36 9
mph
- 70f 80f
2:30 9
mph
1010mb 70f 80f
2:24 9 10 mph 1010.2mb 70f 80f
2:18 9
mph
1010.2mb 70f 80f
2:12 9
mph
1010.3mb 70f 79f
2:06 8
mph
1010.3mb 70f 80f
2:00 7 8 mph 1010.4mb 70f 80f
1:54 6 8 mph 1010.4mb 70f 80f
1:48 7 8 mph - - -
1:42 7 9 mph 1010.4mb 70f 81f
1:36 8 9 mph 1010.4mb 70f 81f
1:30 9
mph
1010.5mb 70f 81f
1:24 8 10 mph 1010.5mb 70f 81f
1:18 8 10 mph 1010.6mb 70f 81f
1:12 9 11 mph 1010.5mb 70f 80f
1:06 6 11 mph 1010.6mb 70f 80f
1:00 8 11 mph 1010.7mb 70f 81f
12:54 7 10 mph 1010.9mb 70f 78f
12:48 9 11 mph 1010.9mb 70f 78f
12:42 7 8 mph 1010.8mb 69f 77f
12:36 7 9 mph 1010.9mb 69f 77f
12:30 7 10 mph 1011mb 69f 76f
12:24 11 16 mph 1011mb 69f 77f
12:18 14 15 mph 1011mb 69f 83f
12:12 13 15 mph 1011mb 69f 81f
12:06 11 14 mph 1011mb 69f 82f
12:00 11 14 mph 1011mb 69f 83f
11:54 13 14 mph 1011.1mb 69f 81f
11:48 6 7 mph 1011mb 69f 88f
11:42 5 6 mph 1010.9mb 69f 89f
11:36 5
mph
1010.8mb 69f 89f
11:30 2 3 mph 1010.8mb 69f 90f
11:24 3
mph
1010.9mb 69f 89f
11:18 3 5 mph 1011mb 69f 89f
11:12 5 6 mph 1011mb 68f 89f
11:06 6
mph
1011mb 68f 88f
11:00 5
mph
1011mb 68f 89f
10:54 5 6 mph 1011.1mb 68f 89f
10:48 5 6 mph - - -
10:42 3 6 mph 1011.3mb 68f 88f
10:36 3 7 mph 1011.4mb 68f 89f
10:30 6 8 mph 1011.4mb 68f 90f
10:24 7 9 mph 1011.4mb 68f 90f
10:18 7 8 mph 1011.5mb 68f 90f
10:12 7 8 mph 1011.4mb 67f 89f
10:06 6 7 mph 1011.4mb 67f 90f
10:00 5 7 mph 1011.4mb 67f 89f
9:54 6 7 mph 1011.4mb 67f 89f
9:48 7 8 mph 1011.4mb 67f 89f
9:42 5 8 mph 1011.3mb 67f 88f
9:36 7 8 mph 1011.3mb 67f 87f
9:30 3 7 mph 1011.2mb 66f 86f
9:24 8 11 mph 1011.3mb 66f 84f
9:18 7 9 mph 1011.2mb 66f 88f
9:12 6 8 mph 1011.2mb 66f 87f
9:06 5 6 mph 1011.1mb 66f 86f
9:00 7 9 mph 1011.2mb 66f 83f
8:54 5 7 mph 1011.2mb 66f 85f
8:48 5 7 mph 1011mb 66f 85f
8:42 7 9 mph 1011.1mb 66f 82f
8:36 8 10 mph 1011mb 66f 78f
8:30 6 7 mph 1010.9mb 66f 85f
8:24 6 9 mph 1010.8mb 66f 84f
8:18 6 8 mph 1010.7mb 66f 85f
8:12 6 7 mph 1010.7mb 66f 83f
8:06 6
mph
1010.9mb 65f 80f
8:00 6
mph
1010.8mb 65f 82f
7:54 5 7 mph 1010.6mb 65f 83f
7:48 6 7 mph 1010.5mb 65f 82f
7:42 6 8 mph 1010.5mb 66f 83f
7:36 7 10 mph 1010.4mb 66f 82f
7:30 8 13 mph 1010.3mb 66f 82f
7:24 11 14 mph 1010.3mb 66f 82f
7:18 10 14 mph 1010.3mb 66f 81f
7:12 9 13 mph 1010.4mb 66f 81f
7:06 9 14 mph 1010.5mb 66f 80f
7:00 11 14 mph 1010.5mb 66f 81f
6:54 11 14 mph 1010.6mb 66f 80f
6:48 11 14 mph - - -
6:42 10 13 mph 1010.6mb 66f 80f
6:36 11 14 mph 1010.6mb 67f 80f
6:30 11 13 mph 1010.6mb 67f 80f
6:24 10 13 mph 1010.5mb 67f 80f
6:18 10 14 mph 1010.5mb 67f 80f
6:12 11 13 mph 1010.5mb 67f 80f
6:06 10 11 mph 1010.5mb 67f 80f
6:00 10 13 mph 1010.5mb 67f 80f
5:54 10 13 mph 1010.5mb 67f 80f
5:48 10 11 mph 1010.5mb 67f 80f
5:42 10 13 mph 1010.5mb 67f 80f
5:36 10 13 mph 1010.4mb 67f 80f
5:30 9 11 mph 1010.4mb 67f 79f
5:24 10 11 mph 1010.4mb 67f 79f
5:18 10 13 mph 1010.4mb 67f 79f
5:12 10 11 mph 1010.4mb 68f 79f
5:06 10 13 mph 1010.4mb 68f 79f
5:00 11 14 mph 1010.4mb 68f 79f
4:54 13 14 mph 1010.5mb 68f 78f
4:48 10 14 mph 1010.5mb 68f 78f
4:42 13 14 mph 1010.4mb 68f 79f
4:36 10 13 mph 1010.4mb 68f 78f
4:30 10
mph
1010.4mb 68f 77f
4:24 6 7 mph 1010.5mb 68f 74f
4:18 2 3 mph 1010.4mb 68f 73f
4:12  -  1 mph 1010.5mb 68f 74f
4:06 1 2 mph 1010.5mb 68f 74f
4:00 2 5 mph 1010.5mb 68f 75f
3:54 2 6 mph 1010.5mb 68f 75f
3:48 5 6 mph 1010.6mb 68f 76f
3:42 3 5 mph 1010.5mb 68f 75f
3:36 3
mph
1010.5mb 68f 75f
3:30 2 5 mph 1010.4mb 68f 75f
3:24 5
mph
1010.5mb 68f 74f
3:18 5 6 mph 1010.4mb 68f 73f
3:12 5 6 mph 1010.3mb 68f 73f
3:06 2
mph
1010.2mb 68f 71f
3:00 2 3 mph 1010.2mb 68f 71f
2:54 2 3 mph 1010.3mb 68f 73f
2:48 2 3 mph 1010.1mb 68f 74f
2:42 3
mph
1010.1mb 68f 73f
2:36 2 3 mph 1010.2mb 68f 74f
2:30 2
mph
1010.4mb 68f 74f
2:24 1
mph
1010.5mb 68f 73f
2:18 1
mph
1010.6mb 68f 73f
2:12  -  mph 1010.6mb 68f 73f
2:06  -  mph 1010.7mb 68f 74f
2:00  -  1 mph 1010.7mb 68f 75f
1:54 1 2 mph 1010.7mb 68f 75f
1:48 1 2 mph 1010.7mb 67f 75f
1:42  -  1 mph 1010.8mb 67f 74f
1:36 1 3 mph 1010.8mb 67f 73f
1:30  -  3 mph 1010.8mb 67f 74f
1:24 3 6 mph 1010.8mb 68f 73f
1:18 5 6 mph 1010.8mb 67f 71f
1:12 5 6 mph 1010.9mb 67f 71f
1:06 5
mph
1011mb 67f 72f
1:00 3
mph
1011.1mb 67f 71f
12:54 3 5 mph 1011.2mb 67f 71f
12:48 5
mph
1011.2mb 68f 71f
12:42 5 6 mph 1011.2mb 67f 71f
12:36 5 6 mph 1011.2mb 67f 71f
12:30 5 6 mph 1011.3mb 67f 70f
12:24 6
mph
1011.4mb 67f 70f
12:18 5 7 mph 1011.5mb 67f 71f
12:12 7 9 mph 1011.5mb 68f 72f
12:06 6 7 mph 1011.6mb 68f 72f
12:00 7 8 mph 1011.6mb 68f 72f
Mo 09/26 11:54 6 7 mph 1011.6mb 67f 73f
11:48 5
mph
1011.6mb 67f 73f
11:42 2 5 mph 1011.6mb 67f -
11:36 2
mph
1011.6mb 68f -
11:30 1 2 mph 1011.6mb 67f 76f
11:24 2 3 mph 1011.5mb 68f 75f
11:18 2 3 mph - - -
11:12 2 6 mph 1011.6mb 68f 75f
11:06 5 6 mph 1011.6mb 68f 75f
11:00 5 6 mph 1011.6mb 68f 76f
10:54 3 5 mph 1011.6mb 68f 76f
10:48 5 6 mph 1011.6mb 68f 76f
10:42 5
mph
1011.6mb 68f -
10:36 3 5 mph 1011.7mb 68f -
10:30 3 5 mph 1011.7mb 68f 76f
10:24 3 6 mph 1011.6mb 68f 76f
10:18 6 8 mph 1011.7mb 68f 76f
10:12 7 8 mph 1011.7mb 68f 76f
10:06 7
mph
1011.8mb 68f 76f
10:00 6 7 mph 1011.7mb 68f 76f
9:54 6 7 mph 1011.7mb 68f 76f
9:48 5 6 mph 1011.7mb 68f 76f
9:42 6
mph
1011.7mb 68f 76f
9:36 6
mph
1011.7mb 68f 76f
9:30 6 8 mph 1011.7mb 68f 76f
9:24 8
mph
1011.7mb 68f 76f
9:18 7
mph
1011.7mb 68f 76f
9:12 3 6 mph 1011.7mb 68f 76f
9:06 6 8 mph 1011.7mb 68f 77f
9:00 7 8 mph 1011.7mb 68f 77f
8:54 7 8 mph 1011.6mb 68f 77f
8:48 6
mph
- - -
8:42 6 7 mph 1011.6mb 68f 77f
8:36 6 7 mph 1011.6mb 68f 77f
8:30 7 8 mph 1011.7mb 68f 76f
8:24 7 8 mph 1011.6mb 68f 76f
8:18 6 7 mph 1011.5mb 69f 77f
8:12 6 7 mph 1011.4mb 69f 77f
8:06 6 9 mph 1011.4mb 69f 76f
8:00 8 9 mph 1011.3mb 69f 77f
7:54 7 8 mph 1011.3mb 69f 77f
7:48 8 9 mph 1011.2mb 68f 77f
7:42 6 7 mph 1011.2mb 68f 76f
7:36 3 6 mph 1011.1mb 68f 77f
7:30 5 8 mph 1011mb 68f 77f
7:24 7 9 mph 1010.9mb 68f 77f
7:18 5 11 mph 1010.9mb 68f 76f
7:12 8 10 mph 1011mb 69f 77f
7:06 7 14 mph 1010.8mb 68f 78f
7:00 14 18 mph 1010.7mb 69f 79f
6:54 14 17 mph 1010.6mb 69f 77f
6:48 5 6 mph - - -
6:42 3 6 mph 1010.6mb 69f 74f
6:36 3 7 mph 1010.6mb 69f 74f
6:30 6 7 mph 1010.5mb 69f 74f
6:24 6 9 mph 1010.5mb 69f 74f
6:18 9 11 mph 1010.7mb 69f 75f
6:12  -  mph 1010.6mb 69f 77f
6:06  -  mph 1010.5mb 69f 79f
6:00 7 10 mph 1010.4mb 69f 80f
5:54 10 14 mph 1010.4mb 69f 79f
5:48 7 13 mph 1010.2mb - -
5:42 8 11 mph 1010.2mb 69f 85f
5:36 6 8 mph 1010.1mb 69f 80f
5:30 6 11 mph 1010mb 69f 82f
5:24 7 9 mph 1010mb 69f 81f
5:18  -  mph 1010mb - -
5:12  -  mph 1010mb 69f 84f
5:06  -  mph 1010mb 69f 86f
5:00 15 18 mph 1010mb 69f 89f
4:54 10 16 mph 1010.1mb 69f 84f
4:48 14 18 mph 1010.1mb - -
4:42 13 16 mph 1010.2mb 69f 86f
4:36 5 8 mph 1010.2mb 69f 83f
4:30 7 15 mph 1010.2mb 69f 82f
4:24 11 16 mph 1010.2mb 69f 85f
4:18 14 18 mph 1010.3mb - -
4:12 11 16 mph 1010.4mb 69f 84f
4:06 8 13 mph 1010.5mb 69f 82f
4:00 10 14 mph 1010.6mb 69f 83f
3:54 8 13 mph 1010.6mb 69f 82f
3:48 9 16 mph 1010.7mb - -
3:42 9 13 mph 1010.7mb 68f -
3:36 8 9 mph 1010.7mb 68f -
3:30 10 15 mph - 68f 82f
3:24 11 14 mph - 68f 86f
3:18 6 9 mph - - -
3:12 7 13 mph 1010.9mb 68f 86f
3:06 8 11 mph 1010.9mb 68f 86f
3:00 7 10 mph 1011mb 68f 85f
2:54 7 9 mph 1011.1mb 68f 84f
2:48 7 13 mph 1011.2mb - -
2:42 7 11 mph 1011.3mb 68f 85f
2:36 8 11 mph 1011.3mb 68f 84f
2:30 9 11 mph 1011.4mb 68f 84f
2:24 10 13 mph 1011.5mb 68f 85f
2:18 9 10 mph 1011.6mb 68f 85f
2:12 9 11 mph 1011.6mb 67f 85f
2:06 7 9 mph 1011.7mb 67f 86f
2:00 6 9 mph 1011.7mb 67f 86f
1:54 7 8 mph 1011.8mb 67f 86f
1:48 6 9 mph 1011.9mb 67f 86f
1:42 7 9 mph 1012.1mb 67f 85f
1:36 7 8 mph 1012.2mb 67f 86f
1:30 5 7 mph 1012.3mb 67f 87f
1:24 6 8 mph 1012.4mb 67f 87f
1:18 7 10 mph 1012.5mb 67f 86f
1:12 8 9 mph 1012.6mb 67f 85f
1:06 7 8 mph 1012.7mb 67f 85f
1:00 7 8 mph 1012.7mb 67f 85f
12:54 7 8 mph 1012.9mb 67f 85f
12:48 7 8 mph 1013mb 67f 85f
12:42 6 7 mph 1013mb 67f 85f
12:36 6 7 mph 1013.1mb 67f 82f
12:30 7 8 mph 1013.1mb 67f 82f
12:24 8
mph
1013.2mb 67f 83f
12:18 8 9 mph 1013.2mb 66f 84f
12:12 9
mph
1013.3mb 66f 84f
12:06 9 10 mph 1013.4mb 66f 84f
12:00 9 10 mph 1013.4mb 66f 85f
11:54 8 9 mph 1013.4mb 66f 85f
11:48 7 8 mph 1013.4mb 66f 86f
11:42 6 8 mph 1013.5mb 66f 87f
11:36 6 7 mph 1013.5mb 66f 87f
11:30 6 7 mph 1013.6mb 66f 85f
11:24 6 7 mph 1013.7mb 66f 83f
11:18 7
mph
1013.7mb 66f 83f
11:12 7
mph
1013.8mb 66f 81f
11:06 7 8 mph 1013.8mb 66f 82f
11:00 6 7 mph 1013.9mb 65f 82f
10:54 5 6 mph 1014mb 66f 82f
10:48 5 6 mph 1014mb 66f 82f
10:42 6
mph
1014.1mb 66f 81f
10:36 6
mph
1014.1mb 66f 81f
10:30 5
mph
1014.1mb 66f 81f
10:24 5 7 mph 1014.1mb 66f 81f
10:18 6 7 mph 1014.2mb 66f 80f
10:12 6 7 mph 1014.2mb 66f 78f
10:06 6 7 mph 1014.2mb 66f 77f
10:00 5 6 mph 1014.2mb 66f 77f
9:54 5
mph
1014.2mb 66f 79f
9:48 3 5 mph 1014.3mb 66f 78f
9:42 7 9 mph 1014.2mb 67f 77f
9:36 3
mph
1014.2mb 67f 81f
9:30  -  1 mph 1014.2mb 67f 83f
9:24  -  3 mph 1014.2mb 67f 82f
9:18 3
mph
1014.1mb 67f 82f
9:12 2 3 mph 1014.2mb 67f 83f
9:06 2
mph
1014.2mb 67f 84f
9:00 2
mph
1014.1mb 67f 85f
8:54 1 2 mph 1014.1mb 67f 83f
8:48  -  2 mph 1014mb 67f 84f
8:42 2 3 mph 1014mb 67f 85f
8:36 2 3 mph 1014mb 67f 83f
8:30 2
mph
1014mb 67f 85f
8:24 2 5 mph 1014mb 67f 84f
8:18 5 6 mph 1013.9mb 67f 84f
8:12 1 7 mph 1013.9mb 67f 82f
8:06 7 9 mph 1013.9mb 67f 83f
8:00 7 9 mph 1013.9mb 67f 82f
7:54 3 5 mph 1014mb 67f 82f
7:48 2 5 mph 1014mb 68f 82f
7:42 1 5 mph 1014mb 68f 80f
7:36 3 8 mph 1013.9mb 68f 80f
7:30 8 10 mph 1013.9mb 68f 81f
7:24 7 9 mph 1013.9mb 68f 80f
7:18 6 8 mph 1013.9mb 68f 80f
7:12 6 7 mph 1013.8mb 68f 80f
7:06 3 6 mph 1013.8mb 68f 79f
7:00 3 7 mph 1013.7mb 68f 78f
6:54 8 11 mph 1013.6mb 68f 79f
6:48 11 13 mph 1013.5mb 68f 80f
6:42 11 14 mph 1013.5mb 68f 81f
6:36 7 9 mph 1013.6mb 68f 80f
6:30 9 13 mph 1013.5mb 68f 79f
6:24 11 14 mph 1013.4mb 68f 80f
6:18 9 10 mph 1013.4mb 68f 79f
6:12 7 8 mph 1013.3mb 68f 78f
6:06 6 8 mph 1013.3mb 68f 78f
6:00 5 11 mph 1013.2mb 68f 78f
5:54 11
mph
1013.2mb 68f 83f
5:48 11 14 mph 1013.2mb 68f 80f
5:42 14 15 mph 1013.1mb 68f 80f
5:36 10 14 mph 1013.2mb 68f 79f
5:30 9 11 mph 1013.2mb 68f 78f
5:24 8 9 mph 1013.2mb 68f 78f
5:18 3 8 mph 1013.2mb 68f 77f
5:12 7 9 mph 1013mb 68f 77f
5:06 8
mph
1012.9mb 68f 79f
5:00 6 7 mph 1012.9mb 68f 79f
4:54 6 7 mph 1012.8mb 68f 80f
4:48 7 8 mph 1012.8mb 68f 80f
4:42 7 8 mph 1012.7mb 68f 79f
4:36 6 7 mph 1012.8mb 68f 77f
4:30 3 6 mph 1012.8mb 68f 76f
4:24 5 8 mph 1012.8mb 68f 76f
4:18 8 9 mph 1012.8mb 68f 76f
4:12 9 11 mph 1012.8mb 68f 78f
4:06 9 11 mph 1012.8mb 68f 79f
4:00 8 10 mph 1012.8mb 68f 77f
3:54 6 7 mph 1012.8mb 68f 76f
3:48 2 8 mph 1012.8mb 68f 74f
3:42 8 9 mph 1012.9mb 68f 77f
3:36 7 10 mph 1012.9mb 68f 78f
3:30 9 11 mph 1012.9mb 68f 81f
3:24 10 13 mph 1012.9mb 68f 80f
3:18 11 13 mph 1012.8mb 68f 79f
3:12 6 11 mph 1012.9mb 68f 75f
3:06 11 13 mph 1012.9mb 68f 77f
3:00 8 10 mph 1013mb 68f 75f
2:54 5 7 mph 1013.1mb 68f 75f
2:48 6 9 mph 1013.2mb 68f 75f
2:42 6 7 mph 1013.2mb 68f 77f
2:36 5 6 mph 1013.3mb 68f 80f
2:30 3 7 mph 1013.3mb 68f 78f
2:24 5 9 mph 1013.4mb 68f 75f
2:18 9 10 mph 1013.5mb 68f 73f
2:12 1 3 mph 1013.4mb 68f 77f
2:06 3 7 mph 1013.4mb 68f 77f
2:00 6 8 mph 1013.5mb 68f 83f
1:54 7 9 mph 1013.4mb 68f 84f
1:48 7 8 mph 1013.4mb 68f 83f
1:42 8 9 mph 1013.4mb 68f 83f
1:36 8 9 mph 1013.4mb 68f 82f
1:30 8
mph
1013.4mb 69f 82f
1:24 2 7 mph 1013.5mb 69f 80f
1:18 5 8 mph 1013.5mb 69f 80f
1:12 7 8 mph 1013.4mb 69f 79f
1:06 7 8 mph 1013.5mb 69f 79f
1:00 7 8 mph 1013.5mb 69f 80f
12:54 7 8 mph 1013.5mb 69f 79f
12:48 6 7 mph 1013.6mb 69f 77f
12:42 2 5 mph 1013.7mb 69f 76f
12:36 5
mph
1013.8mb 69f 76f
12:30 3 6 mph 1013.8mb 69f 76f
12:24 6 7 mph 1013.7mb 69f 76f
12:18 3 6 mph 1013.7mb 69f 78f
12:12 2 5 mph 1013.7mb 69f 77f
12:06 2 8 mph 1013.6mb 69f 77f
12:00 3 7 mph 1013.6mb 69f 75f
So 09/25 11:54 3 7 mph 1013.5mb 69f 74f
11:48 2 3 mph 1013.7mb 69f 76f
11:42 3 5 mph 1013.7mb - -
11:36 2
mph
1013.7mb - -
11:30  -  3 mph 1013.7mb 69f 76f
11:24 3 6 mph 1013.7mb 69f 76f
11:18 3 5 mph 1013.6mb 69f 80f
11:12 5 7 mph 1013.5mb 69f 79f
11:06 5 7 mph 1013.6mb 69f 78f
11:00 5 6 mph 1013.6mb 69f 77f
10:54 2 6 mph 1013.7mb 69f 77f
10:48 5 7 mph 1013.7mb 69f 77f
10:42 5 7 mph 1013.6mb 69f -
10:36 2 5 mph 1013.5mb 69f -
10:30 5 6 mph 1013.5mb 69f 76f
10:24 5 10 mph 1013.5mb 69f 77f
10:18 9 11 mph - - -
10:12 8 10 mph 1013.5mb 68f 77f
10:06 8 10 mph 1013.5mb 68f 76f
10:00 8 9 mph 1013.6mb 68f 75f
9:54 8 9 mph 1013.5mb 68f 75f
9:48 7 10 mph 1013.6mb 68f 75f
9:42 9 10 mph 1013.5mb 68f 75f
9:36 9 10 mph 1013.4mb 68f 75f
9:30 7 10 mph 1013.4mb 68f 75f
9:24 8 10 mph 1013.3mb 68f 76f
9:18 9 13 mph 1013.3mb 68f 76f
9:12 10 11 mph 1013.2mb 69f 76f
9:06 10 11 mph 1013.1mb 69f 76f
9:00 9 13 mph 1013mb 69f 75f
8:54 10 13 mph 1013mb 69f 75f
8:48 8 11 mph - - -
8:42 8 10 mph 1012.7mb 69f 75f
8:36 9 11 mph 1012.7mb 69f 74f
8:30 8 11 mph 1012.6mb 69f 74f
8:24 10 13 mph 1012.5mb 69f 74f
8:18 8 11 mph 1012.5mb 69f 73f
8:12 9 10 mph 1012.4mb 69f 73f
8:06 8 9 mph 1012.3mb 69f 73f
8:00 7 10 mph 1012.2mb 69f 73f
7:54 7 9 mph 1012.2mb 68f 73f
7:48 7 8 mph 1012.2mb 68f 74f
7:42 6 11 mph 1012.1mb 68f 74f
7:36 8 10 mph 1012mb 68f 74f
7:30 6 9 mph 1012mb 69f 74f
7:24 8 10 mph 1012.1mb 69f 74f
7:18 7 10 mph - - -
7:12 6 9 mph - 69f 73f
7:06 9 10 mph - 69f 72f
7:00 6 9 mph 1011.8mb 70f 72f
6:54 8 9 mph 1011.8mb 69f 72f
6:48 11 14 mph - - -
6:42 13
mph
- 69f 72f
6:36 11 13 mph - 70f 73f
6:30 10 11 mph 1011.9mb 69f 73f
6:24 10 11 mph 1011.9mb 69f 73f
6:18 9 11 mph 1011.8mb - -
6:12 9 13 mph 1012mb 69f 73f
6:06 10 11 mph 1011.9mb 69f 73f
6:00 10 11 mph 1011.9mb 68f 74f
5:54 9 10 mph 1012mb 68f 74f
5:48 10
mph
1011.9mb 68f 73f
5:42 10 11 mph 1012.1mb 68f 74f
5:36 7 10 mph 1012mb 68f 75f
5:30 7 9 mph 1012mb 69f 74f
5:24 6 7 mph 1012.1mb 69f 76f
5:18 2 3 mph 1012mb - -
5:12  -  2 mph 1012.1mb 69f 80f
5:06 2 5 mph 1012.3mb 69f 78f
5:00 2 3 mph 1012.4mb 69f 76f
4:54 3 6 mph 1012.3mb 68f 75f
4:48 5 6 mph 1012.4mb - -
4:42 1 2 mph 1012.5mb 68f -
4:36  -  2 mph 1012.5mb 68f -
4:30 1 3 mph - 69f 76f
4:24 2 3 mph - 69f 75f
4:18 2 5 mph 1012.8mb - -
4:12 2 3 mph 1012.8mb 69f 75f
4:06 2 6 mph 1013mb 69f 75f
4:00 5 6 mph 1013mb 69f 74f
3:54 5 6 mph 1013mb 69f 74f
3:48 5 6 mph 1013.1mb - -
3:42 5
mph
1013.3mb 69f -
3:36 3 8 mph 1013.3mb 68f -
3:30 7 8 mph 1013.5mb 69f 73f
3:24 5
mph
1013.3mb 69f 75f
3:18 2
mph
- - -
3:12 2 7 mph 1013.4mb - 75f
3:06 5 7 mph 1013.4mb - 74f
3:00 2 3 mph 1013.5mb 70f 75f
2:54 2 5 mph 1013.6mb 69f 74f
2:48 3 7 mph 1013.6mb - -
2:42 6 9 mph 1013.7mb 69f 73f
2:36 6 8 mph 1013.7mb 69f 73f
2:30 5 6 mph 1013.8mb 69f 74f
2:24 5 9 mph 1013.9mb 69f 73f
2:18 9 11 mph 1013.9mb 69f 73f
2:12 8 9 mph 1014mb 69f 73f
2:06 3 6 mph 1014mb 69f 73f
2:00 5 6 mph 1014.1mb 69f 73f
1:54 3 5 mph 1014.3mb 69f 74f
1:48 1 2 mph 1014.5mb 69f 76f
1:42 1 3 mph 1014.3mb 69f 75f